Applegate, Michigan
Current Conditions -  °F | °C
As of 8:00 PM on Saturday 25 Oct 2014 (Local Time) from CYZR Reporting Station
Clear Clear  
Wind Chill: 15°   Ceiling: Unl
Heat Index: 15°   Visibility: 9mi
Dew Point:   Wind: 16mph
Humidity: 36%   Direction: 290°WNW
Pressure: 29.71"   Gusts: NA
Location:  43.36°N, 82.64°W
Report Text: CYZR 260000Z AUTO 29014KT 9SM CLR 15/00 A2971 RMK SLP060 DENSITY ALT 900FT
Loading
Personal Weather Stations






























Interactive Weather Map
Tropical Storm Tracking
New forecast layout! Learn more

10-Day Weather Forecast

Advertisements
Track Severe Weather on mobile